sensor_id;sensor_type;location;lat;lon;timestamp;pressure;altitude;pressure_sealevel;temperature;humidity
3096;BME280;1558;42.700;23.360;2023-02-11T00:02:19;97022.91;;;-3.28;92.78
3096;BME280;1558;42.700;23.360;2023-02-11T00:04:47;97025.94;;;-3.31;92.94
3096;BME280;1558;42.700;23.360;2023-02-11T00:07:14;97017.44;;;-3.33;93.40
3096;BME280;1558;42.700;23.360;2023-02-11T00:09:42;97024.13;;;-3.31;93.48
3096;BME280;1558;42.700;23.360;2023-02-11T00:12:10;97030.19;;;-3.44;93.82
3096;BME280;1558;42.700;23.360;2023-02-11T00:14:39;97027.97;;;-3.33;94.39
3096;BME280;1558;42.700;23.360;2023-02-11T00:17:09;97021.50;;;-3.31;94.01
3096;BME280;1558;42.700;23.360;2023-02-11T00:19:37;97015.59;;;-3.39;94.66
3096;BME280;1558;42.700;23.360;2023-02-11T00:22:05;97030.38;;;-3.52;94.66
3096;BME280;1558;42.700;23.360;2023-02-11T00:24:34;97034.81;;;-3.59;94.24
3096;BME280;1558;42.700;23.360;2023-02-11T00:27:02;97020.84;;;-3.59;94.56
3096;BME280;1558;42.700;23.360;2023-02-11T00:29:30;97017.63;;;-3.48;95.82
3096;BME280;1558;42.700;23.360;2023-02-11T00:31:58;97024.53;;;-3.47;94.87
3096;BME280;1558;42.700;23.360;2023-02-11T00:34:32;97018.44;;;-3.48;94.66
3096;BME280;1558;42.700;23.360;2023-02-11T00:37:00;96989.81;;;-3.64;94.46
3096;BME280;1558;42.700;23.360;2023-02-11T00:39:29;97020.47;;;-3.30;94.69
3096;BME280;1558;42.700;23.360;2023-02-11T00:41:57;97010.94;;;-3.31;94.19
3096;BME280;1558;42.700;23.360;2023-02-11T00:44:25;97014.19;;;-3.29;94.13
3096;BME280;1558;42.700;23.360;2023-02-11T00:46:53;97014.41;;;-3.30;94.00
3096;BME280;1558;42.700;23.360;2023-02-11T00:49:21;97006.28;;;-3.29;93.65
3096;BME280;1558;42.700;23.360;2023-02-11T00:51:50;97009.13;;;-3.24;93.79
3096;BME280;1558;42.700;23.360;2023-02-11T00:54:18;97001.19;;;-3.17;92.63
3096;BME280;1558;42.700;23.360;2023-02-11T00:56:45;97007.28;;;-3.17;92.55
3096;BME280;1558;42.700;23.360;2023-02-11T00:59:13;97008.09;;;-3.16;91.79
3096;BME280;1558;42.700;23.360;2023-02-11T01:01:41;97016.41;;;-3.19;91.86
3096;BME280;1558;42.700;23.360;2023-02-11T01:04:09;97014.19;;;-3.22;91.97
3096;BME280;1558;42.700;23.360;2023-02-11T01:06:37;97006.50;;;-3.30;91.52
3096;BME280;1558;42.700;23.360;2023-02-11T01:09:06;97008.50;;;-3.32;91.38
3096;BME280;1558;42.700;23.360;2023-02-11T01:11:34;96992.28;;;-3.42;91.20
3096;BME280;1558;42.700;23.360;2023-02-11T01:14:02;97004.44;;;-3.42;91.18
3096;BME280;1558;42.700;23.360;2023-02-11T01:16:30;97009.31;;;-3.38;91.17
3096;BME280;1558;42.700;23.360;2023-02-11T01:18:58;97004.44;;;-3.35;90.34
3096;BME280;1558;42.700;23.360;2023-02-11T01:21:28;97006.88;;;-3.40;90.20
3096;BME280;1558;42.700;23.360;2023-02-11T01:23:56;96999.97;;;-3.41;90.89
3096;BME280;1558;42.700;23.360;2023-02-11T01:26:25;97009.69;;;-3.42;90.60
3096;BME280;1558;42.700;23.360;2023-02-11T01:28:54;96988.81;;;-3.50;90.71
3096;BME280;1558;42.700;23.360;2023-02-11T01:31:22;96985.56;;;-3.52;90.99
3096;BME280;1558;42.700;23.360;2023-02-11T01:33:50;96991.03;;;-3.66;91.15
3096;BME280;1558;42.700;23.360;2023-02-11T01:36:18;96996.66;;;-3.82;91.54
3096;BME280;1558;42.700;23.360;2023-02-11T01:38:46;96993.41;;;-3.91;91.89
3096;BME280;1558;42.700;23.360;2023-02-11T01:41:15;96992.16;;;-4.01;92.75
3096;BME280;1558;42.700;23.360;2023-02-11T01:43:47;96991.72;;;-4.12;93.33
3096;BME280;1558;42.700;23.360;2023-02-11T01:46:32;96975.06;;;-4.25;93.83
3096;BME280;1558;42.700;23.360;2023-02-11T01:49:03;96973.81;;;-4.42;93.92
3096;BME280;1558;42.700;23.360;2023-02-11T01:51:36;96968.47;;;-4.55;94.50
3096;BME280;1558;42.700;23.360;2023-02-11T01:54:06;96990.34;;;-4.48;94.83
3096;BME280;1558;42.700;23.360;2023-02-11T01:56:55;96992.59;;;-4.45;95.97
3096;BME280;1558;42.700;23.360;2023-02-11T01:59:46;96990.13;;;-4.53;96.40
3096;BME280;1558;42.700;23.360;2023-02-11T02:02:17;96988.28;;;-4.59;96.84
3096;BME280;1558;42.700;23.360;2023-02-11T02:04:51;96994.72;;;-4.68;96.73
3096;BME280;1558;42.700;23.360;2023-02-11T02:07:29;96992.50;;;-4.65;97.91
3096;BME280;1558;42.700;23.360;2023-02-11T02:10:03;96995.50;;;-4.68;98.34
3096;BME280;1558;42.700;23.360;2023-02-11T02:12:32;96996.72;;;-4.70;98.19
3096;BME280;1558;42.700;23.360;2023-02-11T02:15:23;96995.84;;;-4.78;98.58
3096;BME280;1558;42.700;23.360;2023-02-11T02:17:59;96959.97;;;-4.92;99.26
3096;BME280;1558;42.700;23.360;2023-02-11T02:20:56;96991.44;;;-4.70;99.39
3096;BME280;1558;42.700;23.360;2023-02-11T02:23:48;97002.56;;;-4.75;99.91
3096;BME280;1558;42.700;23.360;2023-02-11T02:26:43;96995.44;;;-4.81;99.72
3096;BME280;1558;42.700;23.360;2023-02-11T02:32:27;96990.28;;;-4.96;100.00
3096;BME280;1558;42.700;23.360;2023-02-11T02:35:03;97000.78;;;-5.02;100.00
3096;BME280;1558;42.700;23.360;2023-02-11T02:37:40;96900.63;;;-5.69;100.00
3096;BME280;1558;42.700;23.360;2023-02-11T02:40:14;96922.13;;;-5.59;100.00
3096;BME280;1558;42.700;23.360;2023-02-11T02:42:44;96989.28;;;-5.22;100.00
3096;BME280;1558;42.700;23.360;2023-02-11T02:45:12;96995.50;;;-5.30;100.00
3096;BME280;1558;42.700;23.360;2023-02-11T02:47:42;96975.63;;;-5.39;100.00
3096;BME280;1558;42.700;23.360;2023-02-11T02:50:11;96996.69;;;-5.32;100.00
3096;BME280;1558;42.700;23.360;2023-02-11T02:52:45;96995.69;;;-5.31;100.00
3096;BME280;1558;42.700;23.360;2023-02-11T02:55:34;96991.69;;;-5.27;100.00
3096;BME280;1558;42.700;23.360;2023-02-11T02:58:28;96993.41;;;-5.41;100.00
3096;BME280;1558;42.700;23.360;2023-02-11T03:01:07;97000.03;;;-5.45;100.00
3096;BME280;1558;42.700;23.360;2023-02-11T03:03:44;97001.81;;;-5.52;100.00
3096;BME280;1558;42.700;23.360;2023-02-11T03:06:19;97004.69;;;-5.47;100.00
3096;BME280;1558;42.700;23.360;2023-02-11T03:08:55;96994.75;;;-5.52;100.00
3096;BME280;1558;42.700;23.360;2023-02-11T03:11:25;96997.50;;;-5.60;100.00
3096;BME280;1558;42.700;23.360;2023-02-11T03:13:55;96997.03;;;-5.63;100.00
3096;BME280;1558;42.700;23.360;2023-02-11T03:16:26;96998.06;;;-5.64;100.00
3096;BME280;1558;42.700;23.360;2023-02-11T03:18:59;97008.41;;;-5.77;100.00
3096;BME280;1558;42.700;23.360;2023-02-11T03:21:30;96993.84;;;-5.80;100.00
3096;BME280;1558;42.700;23.360;2023-02-11T03:24:02;97003.16;;;-5.77;100.00
3096;BME280;1558;42.700;23.360;2023-02-11T03:26:35;97001.19;;;-5.75;100.00
3096;BME280;1558;42.700;23.360;2023-02-11T03:29:09;96942.94;;;-6.06;100.00
3096;BME280;1558;42.700;23.360;2023-02-11T03:31:49;96955.50;;;-6.02;100.00
3096;BME280;1558;42.700;23.360;2023-02-11T03:34:26;96988.56;;;-5.86;100.00
3096;BME280;1558;42.700;23.360;2023-02-11T03:37:00;96954.22;;;-6.06;100.00
3096;BME280;1558;42.700;23.360;2023-02-11T03:39:32;96989.78;;;-5.82;100.00
3096;BME280;1558;42.700;23.360;2023-02-11T03:42:03;96998.16;;;-5.72;100.00
3096;BME280;1558;42.700;23.360;2023-02-11T03:44:36;96956.56;;;-5.96;100.00
3096;BME280;1558;42.700;23.360;2023-02-11T03:47:08;96989.81;;;-5.33;100.00
3096;BME280;1558;42.700;23.360;2023-02-11T03:49:39;96984.53;;;-5.40;100.00
3096;BME280;1558;42.700;23.360;2023-02-11T03:52:10;96974.59;;;-5.66;100.00
3096;BME280;1558;42.700;23.360;2023-02-11T03:54:40;96976.53;;;-5.74;100.00
3096;BME280;1558;42.700;23.360;2023-02-11T03:57:10;96982.91;;;-5.83;100.00
3096;BME280;1558;42.700;23.360;2023-02-11T03:59:52;96990.69;;;-5.75;100.00
3096;BME280;1558;42.700;23.360;2023-02-11T04:02:21;96988.19;;;-5.83;100.00
3096;BME280;1558;42.700;23.360;2023-02-11T04:04:51;96984.66;;;-5.97;100.00
3096;BME280;1558;42.700;23.360;2023-02-11T04:07:19;96999.38;;;-5.96;100.00
3096;BME280;1558;42.700;23.360;2023-02-11T04:09:47;96996.50;;;-6.01;100.00
3096;BME280;1558;42.700;23.360;2023-02-11T04:12:15;96997.41;;;-6.08;100.00
3096;BME280;1558;42.700;23.360;2023-02-11T04:14:43;97003.16;;;-6.20;100.00
3096;BME280;1558;42.700;23.360;2023-02-11T04:17:11;96989.66;;;-6.38;100.00
3096;BME280;1558;42.700;23.360;2023-02-11T04:19:40;96994.97;;;-6.31;100.00
3096;BME280;1558;42.700;23.360;2023-02-11T04:22:09;96990.53;;;-6.31;100.00
3096;BME280;1558;42.700;23.360;2023-02-11T04:24:37;96994.53;;;-6.35;100.00
3096;BME280;1558;42.700;23.360;2023-02-11T04:27:05;96995.59;;;-6.29;100.00
3096;BME280;1558;42.700;23.360;2023-02-11T04:29:33;96983.66;;;-6.32;100.00
3096;BME280;1558;42.700;23.360;2023-02-11T04:32:01;96997.22;;;-6.28;100.00
3096;BME280;1558;42.700;23.360;2023-02-11T04:34:29;96981.50;;;-6.43;100.00
3096;BME280;1558;42.700;23.360;2023-02-11T04:36:58;96994.72;;;-6.51;100.00
3096;BME280;1558;42.700;23.360;2023-02-11T04:39:27;96984.69;;;-6.47;100.00
3096;BME280;1558;42.700;23.360;2023-02-11T04:41:55;96983.50;;;-6.45;100.00
3096;BME280;1558;42.700;23.360;2023-02-11T04:44:23;96973.38;;;-6.48;100.00
3096;BME280;1558;42.700;23.360;2023-02-11T04:46:51;96987.13;;;-6.46;100.00
3096;BME280;1558;42.700;23.360;2023-02-11T04:49:20;96979.59;;;-6.49;100.00
3096;BME280;1558;42.700;23.360;2023-02-11T04:51:48;96957.66;;;-6.77;100.00
3096;BME280;1558;42.700;23.360;2023-02-11T04:54:16;96987.31;;;-6.62;100.00
3096;BME280;1558;42.700;23.360;2023-02-11T04:56:45;96979.53;;;-6.70;100.00
3096;BME280;1558;42.700;23.360;2023-02-11T04:59:13;96986.50;;;-6.77;100.00
3096;BME280;1558;42.700;23.360;2023-02-11T05:01:41;96985.78;;;-6.71;100.00
3096;BME280;1558;42.700;23.360;2023-02-11T05:04:09;96974.28;;;-6.70;100.00
3096;BME280;1558;42.700;23.360;2023-02-11T05:06:38;96982.16;;;-6.70;100.00
3096;BME280;1558;42.700;23.360;2023-02-11T05:09:06;96968.91;;;-6.83;100.00
3096;BME280;1558;42.700;23.360;2023-02-11T05:11:34;96972.41;;;-6.76;100.00
3096;BME280;1558;42.700;23.360;2023-02-11T05:14:06;96973.13;;;-6.82;100.00
3096;BME280;1558;42.700;23.360;2023-02-11T05:16:34;96935.91;;;-7.07;100.00
3096;BME280;1558;42.700;23.360;2023-02-11T05:19:02;96981.38;;;-6.85;100.00
3096;BME280;1558;42.700;23.360;2023-02-11T05:21:31;96980.63;;;-6.79;100.00
3096;BME280;1558;42.700;23.360;2023-02-11T05:23:58;96981.81;;;-6.81;100.00
3096;BME280;1558;42.700;23.360;2023-02-11T05:26:27;96968.69;;;-6.96;100.00
3096;BME280;1558;42.700;23.360;2023-02-11T05:28:55;96983.09;;;-6.92;100.00
3096;BME280;1558;42.700;23.360;2023-02-11T05:31:24;96970.00;;;-6.92;100.00
3096;BME280;1558;42.700;23.360;2023-02-11T05:33:52;96969.88;;;-6.84;100.00
3096;BME280;1558;42.700;23.360;2023-02-11T05:36:20;96971.16;;;-6.80;100.00
3096;BME280;1558;42.700;23.360;2023-02-11T05:38:48;96970.78;;;-6.77;100.00
3096;BME280;1558;42.700;23.360;2023-02-11T05:41:16;96957.22;;;-6.80;100.00
3096;BME280;1558;42.700;23.360;2023-02-11T05:43:47;96969.59;;;-6.60;100.00
3096;BME280;1558;42.700;23.360;2023-02-11T05:46:15;96974.16;;;-6.33;100.00
3096;BME280;1558;42.700;23.360;2023-02-11T05:48:45;96970.44;;;-6.02;100.00
3096;BME280;1558;42.700;23.360;2023-02-11T05:51:13;96983.16;;;-5.57;100.00
3096;BME280;1558;42.700;23.360;2023-02-11T05:53:41;97001.41;;;-5.28;100.00
3096;BME280;1558;42.700;23.360;2023-02-11T05:56:09;96975.06;;;-5.07;100.00
3096;BME280;1558;42.700;23.360;2023-02-11T05:58:38;96982.22;;;-4.53;100.00
3096;BME280;1558;42.700;23.360;2023-02-11T06:01:05;96981.50;;;-4.34;100.00
3096;BME280;1558;42.700;23.360;2023-02-11T06:03:33;96974.88;;;-4.24;100.00
3096;BME280;1558;42.700;23.360;2023-02-11T06:06:04;96990.78;;;-3.91;100.00
3096;BME280;1558;42.700;23.360;2023-02-11T06:08:32;96980.88;;;-3.63;100.00
3096;BME280;1558;42.700;23.360;2023-02-11T06:10:59;96982.53;;;-3.16;100.00
3096;BME280;1558;42.700;23.360;2023-02-11T06:13:27;96980.69;;;-3.02;98.00
3096;BME280;1558;42.700;23.360;2023-02-11T06:15:56;96975.22;;;-3.07;94.51
3096;BME280;1558;42.700;23.360;2023-02-11T06:18:24;96952.47;;;-2.89;93.38
3096;BME280;1558;42.700;23.360;2023-02-11T06:20:52;96980.09;;;-2.98;91.15
3096;BME280;1558;42.700;23.360;2023-02-11T06:23:21;96988.53;;;-2.63;91.07
3096;BME280;1558;42.700;23.360;2023-02-11T06:25:49;96977.50;;;-2.47;89.63
3096;BME280;1558;42.700;23.360;2023-02-11T06:28:18;96981.50;;;-1.80;90.23
3096;BME280;1558;42.700;23.360;2023-02-11T06:30:46;96992.50;;;-1.83;86.75
3096;BME280;1558;42.700;23.360;2023-02-11T06:33:14;96975.00;;;-1.84;84.57
3096;BME280;1558;42.700;23.360;2023-02-11T06:35:42;96985.34;;;-1.76;83.89
3096;BME280;1558;42.700;23.360;2023-02-11T06:38:10;96989.56;;;-1.38;82.61
3096;BME280;1558;42.700;23.360;2023-02-11T06:40:39;96982.88;;;-1.71;80.57
3096;BME280;1558;42.700;23.360;2023-02-11T06:43:07;96992.59;;;-1.34;80.23
3096;BME280;1558;42.700;23.360;2023-02-11T06:45:35;96983.03;;;-1.35;78.97
3096;BME280;1558;42.700;23.360;2023-02-11T06:48:03;96987.91;;;-1.32;77.70
3096;BME280;1558;42.700;23.360;2023-02-11T06:50:31;96989.44;;;-1.00;77.94
3096;BME280;1558;42.700;23.360;2023-02-11T06:52:59;96988.09;;;-0.84;76.42
3096;BME280;1558;42.700;23.360;2023-02-11T06:55:27;96996.66;;;-0.64;75.73
3096;BME280;1558;42.700;23.360;2023-02-11T06:57:56;96989.28;;;-0.80;74.45
3096;BME280;1558;42.700;23.360;2023-02-11T07:00:24;96988.09;;;-0.59;73.99
3096;BME280;1558;42.700;23.360;2023-02-11T07:02:54;96991.06;;;-0.74;72.17
3096;BME280;1558;42.700;23.360;2023-02-11T07:05:22;96998.38;;;-0.94;72.98
3096;BME280;1558;42.700;23.360;2023-02-11T07:07:50;96986.13;;;-0.71;73.31
3096;BME280;1558;42.700;23.360;2023-02-11T07:10:19;96975.69;;;-0.65;73.74
3096;BME280;1558;42.700;23.360;2023-02-11T07:12:47;96991.78;;;-0.24;72.98
3096;BME280;1558;42.700;23.360;2023-02-11T07:15:16;96975.34;;;-0.33;71.58
3096;BME280;1558;42.700;23.360;2023-02-11T07:17:44;96982.16;;;-0.07;71.63
3096;BME280;1558;42.700;23.360;2023-02-11T07:20:12;96985.63;;;0.12;71.30
3096;BME280;1558;42.700;23.360;2023-02-11T07:22:41;96975.09;;;0.35;69.99
3096;BME280;1558;42.700;23.360;2023-02-11T07:25:09;96976.94;;;0.34;68.97
3096;BME280;1558;42.700;23.360;2023-02-11T07:27:37;96973.09;;;0.60;69.20
3096;BME280;1558;42.700;23.360;2023-02-11T07:30:05;96964.28;;;1.01;67.48
3096;BME280;1558;42.700;23.360;2023-02-11T07:32:35;96963.69;;;0.99;67.20
3096;BME280;1558;42.700;23.360;2023-02-11T07:35:03;96962.16;;;0.80;65.55
3096;BME280;1558;42.700;23.360;2023-02-11T07:37:32;96958.25;;;1.17;66.53
3096;BME280;1558;42.700;23.360;2023-02-11T07:40:00;96958.94;;;1.35;66.36
3096;BME280;1558;42.700;23.360;2023-02-11T07:42:28;96955.50;;;1.35;64.45
3096;BME280;1558;42.700;23.360;2023-02-11T07:44:56;96957.00;;;1.43;64.95
3096;BME280;1558;42.700;23.360;2023-02-11T07:47:24;96954.53;;;1.76;64.34
3096;BME280;1558;42.700;23.360;2023-02-11T07:49:53;96952.06;;;1.86;64.79
3096;BME280;1558;42.700;23.360;2023-02-11T07:52:22;96955.16;;;1.94;63.99
3096;BME280;1558;42.700;23.360;2023-02-11T07:54:50;96951.56;;;2.00;62.23
3096;BME280;1558;42.700;23.360;2023-02-11T07:57:36;96950.53;;;2.30;63.70
3096;BME280;1558;42.700;23.360;2023-02-11T08:00:05;96940.91;;;2.29;61.59
3096;BME280;1558;42.700;23.360;2023-02-11T08:02:33;96945.06;;;2.08;60.71
3096;BME280;1558;42.700;23.360;2023-02-11T08:05:02;96940.56;;;1.57;62.72
3096;BME280;1558;42.700;23.360;2023-02-11T08:07:30;96946.25;;;1.49;62.43
3096;BME280;1558;42.700;23.360;2023-02-11T08:09:58;96944.28;;;1.21;62.68
3096;BME280;1558;42.700;23.360;2023-02-11T08:12:26;96907.88;;;1.33;64.02
3096;BME280;1558;42.700;23.360;2023-02-11T08:14:54;96952.88;;;1.86;62.87
3096;BME280;1558;42.700;23.360;2023-02-11T08:17:23;96941.56;;;1.79;63.15
3096;BME280;1558;42.700;23.360;2023-02-11T08:19:51;96937.38;;;2.23;62.49
3096;BME280;1558;42.700;23.360;2023-02-11T08:22:20;96925.97;;;2.72;61.46
3096;BME280;1558;42.700;23.360;2023-02-11T08:24:48;96905.38;;;2.07;59.86
3096;BME280;1558;42.700;23.360;2023-02-11T08:27:18;96937.75;;;1.75;61.33
3096;BME280;1558;42.700;23.360;2023-02-11T08:29:45;96914.19;;;2.24;61.70
3096;BME280;1558;42.700;23.360;2023-02-11T08:32:13;96923.94;;;2.46;61.54
3096;BME280;1558;42.700;23.360;2023-02-11T08:34:41;96914.84;;;2.92;61.75
3096;BME280;1558;42.700;23.360;2023-02-11T08:37:10;96921.59;;;3.55;59.55
3096;BME280;1558;42.700;23.360;2023-02-11T08:39:40;96917.28;;;3.70;58.01
3096;BME280;1558;42.700;23.360;2023-02-11T08:42:08;96932.19;;;4.36;56.93
3096;BME280;1558;42.700;23.360;2023-02-11T08:44:36;96934.91;;;3.33;55.93
3096;BME280;1558;42.700;23.360;2023-02-11T08:47:04;96912.25;;;2.64;57.50
3096;BME280;1558;42.700;23.360;2023-02-11T08:49:32;96933.84;;;2.34;58.67
3096;BME280;1558;42.700;23.360;2023-02-11T08:52:00;96935.50;;;2.68;60.31
3096;BME280;1558;42.700;23.360;2023-02-11T08:54:30;96919.13;;;3.48;59.17
3096;BME280;1558;42.700;23.360;2023-02-11T08:56:59;96930.66;;;3.54;57.49
3096;BME280;1558;42.700;23.360;2023-02-11T08:59:30;96937.53;;;3.11;57.47
3096;BME280;1558;42.700;23.360;2023-02-11T09:01:58;96922.66;;;3.54;57.62
3096;BME280;1558;42.700;23.360;2023-02-11T09:04:26;96927.81;;;4.25;57.14
3096;BME280;1558;42.700;23.360;2023-02-11T09:06:53;96921.34;;;4.21;56.07
3096;BME280;1558;42.700;23.360;2023-02-11T09:09:21;96919.34;;;4.11;54.25
3096;BME280;1558;42.700;23.360;2023-02-11T09:11:49;96922.06;;;4.38;54.01
3096;BME280;1558;42.700;23.360;2023-02-11T09:14:24;96925.81;;;4.69;54.07
3096;BME280;1558;42.700;23.360;2023-02-11T09:16:52;96921.09;;;4.49;53.47
3096;BME280;1558;42.700;23.360;2023-02-11T09:19:20;96911.88;;;4.08;54.51
3096;BME280;1558;42.700;23.360;2023-02-11T09:21:48;96925.09;;;3.98;55.10
3096;BME280;1558;42.700;23.360;2023-02-11T09:24:16;96910.22;;;4.29;55.95
3096;BME280;1558;42.700;23.360;2023-02-11T09:26:45;96903.84;;;4.35;54.72
3096;BME280;1558;42.700;23.360;2023-02-11T09:29:13;96909.91;;;4.26;55.96
3096;BME280;1558;42.700;23.360;2023-02-11T09:31:42;96901.81;;;4.74;55.73
3096;BME280;1558;42.700;23.360;2023-02-11T09:34:11;96854.56;;;4.48;54.69
3096;BME280;1558;42.700;23.360;2023-02-11T09:36:39;96908.56;;;4.82;53.97
3096;BME280;1558;42.700;23.360;2023-02-11T09:39:11;96843.97;;;4.58;53.20
3096;BME280;1558;42.700;23.360;2023-02-11T09:42:01;96891.44;;;4.82;52.45
3096;BME280;1558;42.700;23.360;2023-02-11T09:44:36;96887.31;;;4.97;52.75
3096;BME280;1558;42.700;23.360;2023-02-11T09:47:16;96871.56;;;5.47;51.51
3096;BME280;1558;42.700;23.360;2023-02-11T09:49:49;96880.19;;;5.64;50.03
3096;BME280;1558;42.700;23.360;2023-02-11T09:52:26;96879.59;;;5.05;49.39
3096;BME280;1558;42.700;23.360;2023-02-11T09:54:57;96873.59;;;4.88;50.17
3096;BME280;1558;42.700;23.360;2023-02-11T09:57:30;96864.84;;;4.61;49.96
3096;BME280;1558;42.700;23.360;2023-02-11T09:59:59;96843.38;;;4.88;50.32
3096;BME280;1558;42.700;23.360;2023-02-11T10:02:35;96855.25;;;5.48;49.53
3096;BME280;1558;42.700;23.360;2023-02-11T10:05:24;96850.72;;;5.54;48.83
3096;BME280;1558;42.700;23.360;2023-02-11T10:08:00;96828.31;;;5.65;48.87
3096;BME280;1558;42.700;23.360;2023-02-11T10:10:41;96840.72;;;5.91;48.88
3096;BME280;1558;42.700;23.360;2023-02-11T10:13:27;96842.25;;;5.77;48.21
3096;BME280;1558;42.700;23.360;2023-02-11T10:16:04;96829.72;;;5.26;47.22
3096;BME280;1558;42.700;23.360;2023-02-11T10:18:45;96820.09;;;5.97;47.27
3096;BME280;1558;42.700;23.360;2023-02-11T10:21:24;96756.19;;;5.28;46.45
3096;BME280;1558;42.700;23.360;2023-02-11T10:23:59;96809.19;;;5.36;48.26
3096;BME280;1558;42.700;23.360;2023-02-11T10:26:31;96788.16;;;5.70;47.76
3096;BME280;1558;42.700;23.360;2023-02-11T10:29:05;96794.31;;;5.66;46.90
3096;BME280;1558;42.700;23.360;2023-02-11T10:31:41;96787.13;;;5.81;46.74
3096;BME280;1558;42.700;23.360;2023-02-11T10:34:13;96797.66;;;6.33;46.59
3096;BME280;1558;42.700;23.360;2023-02-11T10:36:43;96773.56;;;6.08;45.15
3096;BME280;1558;42.700;23.360;2023-02-11T10:39:13;96750.78;;;6.21;45.16
3096;BME280;1558;42.700;23.360;2023-02-11T10:41:45;96704.72;;;6.24;45.40
3096;BME280;1558;42.700;23.360;2023-02-11T10:44:21;96675.44;;;6.72;44.59
3096;BME280;1558;42.700;23.360;2023-02-11T10:46:50;96607.78;;;5.86;41.48
3096;BME280;1558;42.700;23.360;2023-02-11T10:49:37;96720.78;;;6.39;43.23
3096;BME280;1558;42.700;23.360;2023-02-11T10:52:14;96735.69;;;6.85;42.88
3096;BME280;1558;42.700;23.360;2023-02-11T10:55:00;96727.31;;;7.07;42.30
3096;BME280;1558;42.700;23.360;2023-02-11T10:57:32;96734.59;;;7.01;42.37
3096;BME280;1558;42.700;23.360;2023-02-11T11:00:07;96712.16;;;6.67;41.98
3096;BME280;1558;42.700;23.360;2023-02-11T11:02:53;96710.47;;;6.96;42.41
3096;BME280;1558;42.700;23.360;2023-02-11T11:05:29;96712.59;;;6.99;41.75
3096;BME280;1558;42.700;23.360;2023-02-11T11:07:59;96713.22;;;6.71;41.75
3096;BME280;1558;42.700;23.360;2023-02-11T11:10:34;96703.25;;;6.87;42.16
3096;BME280;1558;42.700;23.360;2023-02-11T11:13:26;96713.97;;;6.92;42.31
3096;BME280;1558;42.700;23.360;2023-02-11T11:16:22;96685.25;;;6.92;41.51
3096;BME280;1558;42.700;23.360;2023-02-11T11:18:52;96685.34;;;6.67;41.24
3096;BME280;1558;42.700;23.360;2023-02-11T11:21:23;96691.22;;;6.84;41.26
3096;BME280;1558;42.700;23.360;2023-02-11T11:23:54;96679.69;;;7.37;41.36
3096;BME280;1558;42.700;23.360;2023-02-11T11:26:24;96696.41;;;7.29;40.48
3096;BME280;1558;42.700;23.360;2023-02-11T11:28:56;96641.75;;;7.10;40.44
3096;BME280;1558;42.700;23.360;2023-02-11T11:31:28;96657.41;;;7.37;40.90
3096;BME280;1558;42.700;23.360;2023-02-11T11:33:58;96685.56;;;7.44;40.13
3096;BME280;1558;42.700;23.360;2023-02-11T11:36:35;96689.59;;;6.78;38.73
3096;BME280;1558;42.700;23.360;2023-02-11T11:39:17;96620.41;;;6.80;38.66
3096;BME280;1558;42.700;23.360;2023-02-11T11:41:52;96630.78;;;6.97;39.00
3096;BME280;1558;42.700;23.360;2023-02-11T11:44:30;96654.84;;;7.22;39.53
3096;BME280;1558;42.700;23.360;2023-02-11T11:47:19;96643.03;;;7.62;38.31
3096;BME280;1558;42.700;23.360;2023-02-11T11:50:02;96672.63;;;7.51;38.28
3096;BME280;1558;42.700;23.360;2023-02-11T11:52:39;96667.78;;;7.05;40.53
3096;BME280;1558;42.700;23.360;2023-02-11T11:55:15;96665.25;;;7.28;40.30
3096;BME280;1558;42.700;23.360;2023-02-11T11:57:45;96656.03;;;6.96;41.18
3096;BME280;1558;42.700;23.360;2023-02-11T12:00:16;96657.13;;;7.43;40.55
3096;BME280;1558;42.700;23.360;2023-02-11T12:03:03;96648.19;;;7.92;38.56
3096;BME280;1558;42.700;23.360;2023-02-11T12:05:42;96645.88;;;7.75;38.16
3096;BME280;1558;42.700;23.360;2023-02-11T12:08:23;96599.78;;;6.75;39.00
3096;BME280;1558;42.700;23.360;2023-02-11T12:11:05;96636.31;;;7.20;39.30
3096;BME280;1558;42.700;23.360;2023-02-11T12:13:51;96618.88;;;7.62;39.36
3096;BME280;1558;42.700;23.360;2023-02-11T12:16:29;96626.31;;;7.75;38.43
3096;BME280;1558;42.700;23.360;2023-02-11T12:19:29;96610.34;;;7.55;37.87
3096;BME280;1558;42.700;23.360;2023-02-11T12:22:08;96610.16;;;8.08;37.07
3096;BME280;1558;42.700;23.360;2023-02-11T12:24:47;96606.22;;;8.01;37.57
3096;BME280;1558;42.700;23.360;2023-02-11T12:27:31;96546.34;;;7.67;36.79
3096;BME280;1558;42.700;23.360;2023-02-11T12:30:16;96599.66;;;8.12;36.33
3096;BME280;1558;42.700;23.360;2023-02-11T12:32:50;96590.53;;;7.84;37.43
3096;BME280;1558;42.700;23.360;2023-02-11T12:35:26;96597.13;;;7.63;37.43
3096;BME280;1558;42.700;23.360;2023-02-11T12:38:09;96590.31;;;7.37;36.81
3096;BME280;1558;42.700;23.360;2023-02-11T12:40:45;96580.38;;;7.42;37.17
3096;BME280;1558;42.700;23.360;2023-02-11T12:43:22;96573.78;;;7.59;36.54
3096;BME280;1558;42.700;23.360;2023-02-11T12:46:12;96585.19;;;7.45;36.29
3096;BME280;1558;42.700;23.360;2023-02-11T12:49:13;96582.66;;;7.20;36.33
3096;BME280;1558;42.700;23.360;2023-02-11T12:51:59;96563.22;;;6.95;36.44
3096;BME280;1558;42.700;23.360;2023-02-11T12:54:37;96572.06;;;7.00;37.83
3096;BME280;1558;42.700;23.360;2023-02-11T12:57:16;96563.75;;;7.40;37.08
3096;BME280;1558;42.700;23.360;2023-02-11T12:59:50;96564.91;;;7.63;37.18
3096;BME280;1558;42.700;23.360;2023-02-11T13:02:28;96564.91;;;7.29;37.83
3096;BME280;1558;42.700;23.360;2023-02-11T13:05:04;96521.19;;;6.85;38.05
3096;BME280;1558;42.700;23.360;2023-02-11T13:07:36;96557.00;;;7.04;38.45
3096;BME280;1558;42.700;23.360;2023-02-11T13:10:19;96565.91;;;7.38;38.55
3096;BME280;1558;42.700;23.360;2023-02-11T13:12:51;96563.59;;;7.61;38.54
3096;BME280;1558;42.700;23.360;2023-02-11T13:15:40;96559.44;;;7.39;38.88
3096;BME280;1558;42.700;23.360;2023-02-11T13:18:21;96558.13;;;6.98;38.04
3096;BME280;1558;42.700;23.360;2023-02-11T13:20:56;96553.81;;;7.02;38.44
3096;BME280;1558;42.700;23.360;2023-02-11T13:23:32;96549.16;;;7.51;38.05
3096;BME280;1558;42.700;23.360;2023-02-11T13:26:06;96539.31;;;7.03;37.84
3096;BME280;1558;42.700;23.360;2023-02-11T13:28:46;96530.31;;;6.84;38.21
3096;BME280;1558;42.700;23.360;2023-02-11T13:31:15;96556.28;;;6.94;37.20
3096;BME280;1558;42.700;23.360;2023-02-11T13:33:46;96543.06;;;6.58;37.72
3096;BME280;1558;42.700;23.360;2023-02-11T13:36:23;96342.34;;;5.54;37.62
3096;BME280;1558;42.700;23.360;2023-02-11T13:38:58;96542.22;;;6.68;36.60
3096;BME280;1558;42.700;23.360;2023-02-11T13:41:29;96493.34;;;6.27;37.90
3096;BME280;1558;42.700;23.360;2023-02-11T13:44:03;96543.41;;;6.37;37.07